createdAt,value
2022-10-09T00:17:15.498Z,13.40
2022-10-09T00:47:32.868Z,13.10
2022-10-09T01:17:46.926Z,13.60
2022-10-09T01:47:58.350Z,12.60
2022-10-09T02:18:17.672Z,12.30
2022-10-09T02:48:30.009Z,12.00
2022-10-09T03:18:41.265Z,11.80
2022-10-09T03:48:50.112Z,11.00
2022-10-09T04:18:59.069Z,10.30
2022-10-09T04:49:12.351Z,9.60
2022-10-09T05:19:24.503Z,9.10
2022-10-09T05:49:33.110Z,9.50
2022-10-09T06:19:41.872Z,10.10
2022-10-09T06:49:50.697Z,10.50
2022-10-09T07:20:01.615Z,10.60
2022-10-09T07:50:16.701Z,10.80
2022-10-09T08:20:25.375Z,11.30
2022-10-09T08:50:40.295Z,12.00
2022-10-09T09:51:26.995Z,20.20
2022-10-09T10:21:44.537Z,25.00
2022-10-09T10:52:19.742Z,26.60
2022-10-09T11:22:45.119Z,19.80
2022-10-09T11:53:01.222Z,18.30
2022-10-09T12:23:26.643Z,17.70
2022-10-09T12:53:36.523Z,16.30
2022-10-09T13:23:53.850Z,16.00
2022-10-09T13:54:02.831Z,15.10
2022-10-09T14:24:11.402Z,14.90
2022-10-09T14:54:20.088Z,15.20
2022-10-09T15:24:40.291Z,14.70
2022-10-09T15:54:48.765Z,13.70
2022-10-09T16:24:57.707Z,13.00
2022-10-09T16:55:14.513Z,11.60
2022-10-09T17:25:26.195Z,10.30
2022-10-09T17:55:47.247Z,9.40
2022-10-09T18:25:55.875Z,8.90
2022-10-09T18:56:06.832Z,8.40
2022-10-09T19:26:15.720Z,7.90
2022-10-09T19:56:29.693Z,7.50
2022-10-09T20:26:48.270Z,7.00
2022-10-09T20:56:57.268Z,6.60
2022-10-09T21:27:05.997Z,6.80
2022-10-09T22:27:29.400Z,8.50
2022-10-09T22:57:38.271Z,8.00
2022-10-09T23:27:46.879Z,8.10
2022-10-09T23:58:02.498Z,7.20
